createdAt,value
2024-03-16T00:00:08.774Z,16.00
2024-03-16T00:02:36.928Z,16.90
2024-03-16T00:05:05.186Z,17.20
2024-03-16T00:07:33.381Z,15.93
2024-03-16T00:10:01.669Z,15.87
2024-03-16T00:12:30.045Z,17.50
2024-03-16T00:14:58.171Z,18.13
2024-03-16T00:17:26.660Z,17.87
2024-03-16T00:19:54.737Z,17.67
2024-03-16T00:22:23.026Z,18.47
2024-03-16T00:24:51.338Z,18.40
2024-03-16T00:27:19.825Z,18.00
2024-03-16T00:29:47.907Z,18.07
2024-03-16T00:32:16.485Z,19.10
2024-03-16T00:34:44.597Z,19.70
2024-03-16T00:37:12.730Z,19.90
2024-03-16T00:39:41.182Z,19.03
2024-03-16T00:42:11.055Z,19.80
2024-03-16T00:44:39.160Z,18.70
2024-03-16T00:47:07.407Z,18.70
2024-03-16T00:49:36.003Z,19.00
2024-03-16T00:52:04.181Z,18.87
2024-03-16T00:54:32.790Z,19.03
2024-03-16T00:57:00.934Z,18.20
2024-03-16T00:59:30.066Z,19.77
2024-03-16T01:01:58.659Z,17.90
2024-03-16T01:04:26.778Z,16.93
2024-03-16T01:06:55.075Z,17.70
2024-03-16T01:09:23.504Z,19.00
2024-03-16T01:11:51.680Z,17.83
2024-03-16T01:14:20.063Z,19.03
2024-03-16T01:16:48.217Z,17.23
2024-03-16T01:19:16.864Z,18.40
2024-03-16T01:21:45.088Z,18.47
2024-03-16T01:24:13.303Z,18.90
2024-03-16T01:26:41.347Z,18.27
2024-03-16T01:29:15.054Z,19.00
2024-03-16T01:31:43.120Z,17.77
2024-03-16T01:34:11.494Z,18.33
2024-03-16T01:36:40.033Z,19.63
2024-03-16T01:39:12.503Z,18.63
2024-03-16T01:41:41.434Z,18.47
2024-03-16T01:44:11.598Z,18.47
2024-03-16T01:46:41.042Z,20.10
2024-03-16T01:49:10.207Z,18.33
2024-03-16T01:51:38.455Z,18.67
2024-03-16T01:54:06.778Z,18.47
2024-03-16T01:56:35.345Z,18.53
2024-03-16T01:59:03.531Z,15.70
2024-03-16T02:01:32.407Z,17.60
2024-03-16T02:04:00.727Z,16.17
2024-03-16T02:06:30.142Z,16.10
2024-03-16T02:09:01.501Z,16.40
2024-03-16T02:11:29.672Z,15.80
2024-03-16T02:13:57.994Z,16.33
2024-03-16T02:16:26.084Z,16.23
2024-03-16T02:18:54.668Z,15.60
2024-03-16T02:21:23.039Z,16.67
2024-03-16T02:23:51.169Z,16.70
2024-03-16T02:26:19.282Z,16.67
2024-03-16T02:28:47.357Z,16.63
2024-03-16T02:31:15.586Z,17.00
2024-03-16T02:33:43.788Z,18.23
2024-03-16T02:36:12.824Z,16.67
2024-03-16T02:38:41.728Z,17.97
2024-03-16T02:41:09.924Z,17.80
2024-03-16T02:43:38.017Z,20.17
2024-03-16T02:46:24.812Z,19.40
2024-03-16T02:48:52.947Z,19.93
2024-03-16T02:51:21.066Z,18.93
2024-03-16T02:53:49.234Z,18.90
2024-03-16T02:56:17.302Z,18.83
2024-03-16T02:58:45.749Z,19.07
2024-03-16T03:01:14.501Z,18.53
2024-03-16T03:03:42.706Z,19.80
2024-03-16T03:06:10.844Z,20.17
2024-03-16T03:08:39.960Z,20.83
2024-03-16T03:11:09.959Z,21.20
2024-03-16T03:13:38.164Z,19.07
2024-03-16T03:16:06.681Z,24.83
2024-03-16T03:18:35.353Z,24.17
2024-03-16T03:21:03.479Z,26.83
2024-03-16T03:23:31.626Z,26.90
2024-03-16T03:25:59.861Z,22.70
2024-03-16T03:28:27.961Z,20.47
2024-03-16T03:30:56.055Z,19.33
2024-03-16T03:33:24.150Z,21.50
2024-03-16T03:35:52.250Z,20.17
2024-03-16T03:38:20.328Z,19.43
2024-03-16T03:40:48.430Z,23.07
2024-03-16T03:43:20.860Z,23.17
2024-03-16T03:45:55.227Z,24.47
2024-03-16T03:48:42.693Z,25.13
2024-03-16T03:51:11.156Z,24.20
2024-03-16T03:53:39.199Z,23.40
2024-03-16T03:56:07.468Z,23.70
2024-03-16T03:58:35.526Z,20.73
2024-03-16T04:01:03.723Z,24.13
2024-03-16T04:03:31.930Z,23.37
2024-03-16T04:06:00.046Z,22.07
2024-03-16T04:08:28.094Z,21.33
2024-03-16T04:10:56.253Z,20.30
2024-03-16T04:13:24.332Z,19.40
2024-03-16T04:15:52.503Z,20.70
2024-03-16T04:18:20.623Z,20.23
2024-03-16T04:20:48.678Z,19.53
2024-03-16T04:23:16.811Z,17.80
2024-03-16T04:25:44.887Z,22.70
2024-03-16T04:28:13.899Z,19.57
2024-03-16T04:30:42.111Z,18.13
2024-03-16T04:33:10.266Z,17.10
2024-03-16T04:35:38.442Z,16.80
2024-03-16T04:38:06.608Z,16.93
2024-03-16T04:40:34.708Z,15.80
2024-03-16T04:43:02.956Z,16.03
2024-03-16T04:45:31.164Z,17.80
2024-03-16T04:47:59.346Z,17.97
2024-03-16T04:50:27.759Z,17.60
2024-03-16T04:52:56.132Z,16.37
2024-03-16T04:55:24.344Z,16.33
2024-03-16T04:57:52.425Z,17.90
2024-03-16T05:00:20.616Z,18.03
2024-03-16T05:02:49.628Z,18.60
2024-03-16T05:05:17.758Z,17.47
2024-03-16T05:07:45.893Z,19.30
2024-03-16T05:10:14.106Z,27.53
2024-03-16T05:12:42.267Z,26.67
2024-03-16T05:15:10.905Z,24.13
2024-03-16T05:17:40.685Z,23.60
2024-03-16T05:20:10.623Z,17.47
2024-03-16T05:22:39.575Z,17.77
2024-03-16T05:25:08.176Z,18.20
2024-03-16T05:27:36.721Z,17.47
2024-03-16T05:30:08.438Z,19.50
2024-03-16T05:32:36.956Z,17.57
2024-03-16T05:35:07.940Z,17.83
2024-03-16T05:37:36.142Z,17.27
2024-03-16T05:40:04.825Z,16.33
2024-03-16T05:42:35.903Z,16.80
2024-03-16T05:45:04.771Z,15.47
2024-03-16T05:47:32.986Z,14.77
2024-03-16T05:50:01.148Z,14.30
2024-03-16T05:52:29.331Z,14.87
2024-03-16T05:54:57.597Z,15.50
2024-03-16T05:57:27.343Z,13.70
2024-03-16T05:59:55.490Z,14.03
2024-03-16T06:02:24.345Z,14.07
2024-03-16T06:04:53.156Z,13.53
2024-03-16T06:07:21.863Z,13.53
2024-03-16T06:09:50.077Z,13.13
2024-03-16T06:12:18.288Z,12.97
2024-03-16T06:14:47.055Z,13.03
2024-03-16T06:17:15.728Z,13.87
2024-03-16T06:19:45.063Z,13.43
2024-03-16T06:22:13.295Z,14.20
2024-03-16T06:24:43.966Z,13.27
2024-03-16T06:27:16.181Z,13.70
2024-03-16T06:29:49.010Z,13.37
2024-03-16T06:32:21.509Z,14.60
2024-03-16T06:34:49.895Z,16.10
2024-03-16T06:37:18.665Z,15.97
2024-03-16T06:39:47.334Z,15.00
2024-03-16T06:42:15.454Z,15.60
2024-03-16T06:44:43.607Z,15.13
2024-03-16T06:47:11.669Z,15.83
2024-03-16T06:49:39.809Z,16.27
2024-03-16T06:52:09.549Z,16.47
2024-03-16T06:54:37.723Z,16.43
2024-03-16T06:57:06.144Z,15.63
2024-03-16T06:59:34.271Z,16.27
2024-03-16T07:02:02.397Z,15.03
2024-03-16T07:04:31.232Z,15.70
2024-03-16T07:06:59.335Z,15.07
2024-03-16T07:09:27.490Z,14.77
2024-03-16T07:11:56.353Z,14.73
2024-03-16T07:14:24.461Z,15.45
2024-03-16T07:16:53.050Z,14.65
2024-03-16T07:19:24.434Z,15.38
2024-03-16T07:21:52.841Z,15.90
2024-03-16T07:24:21.005Z,14.40
2024-03-16T07:26:49.488Z,15.27
2024-03-16T07:29:17.615Z,14.98
2024-03-16T07:31:46.400Z,14.65
2024-03-16T07:34:14.583Z,16.42
2024-03-16T07:36:42.787Z,14.63
2024-03-16T07:39:12.414Z,14.68
2024-03-16T07:41:40.741Z,15.50
2024-03-16T07:44:08.952Z,14.82
2024-03-16T07:46:37.039Z,15.05
2024-03-16T07:49:09.461Z,15.90
2024-03-16T07:51:38.273Z,16.55
2024-03-16T07:54:10.250Z,17.50
2024-03-16T07:56:38.493Z,16.25
2024-03-16T07:59:07.235Z,16.05
2024-03-16T08:01:36.570Z,16.30
2024-03-16T08:04:04.881Z,15.80
2024-03-16T08:06:33.390Z,15.88
2024-03-16T08:09:01.543Z,16.98
2024-03-16T08:11:31.450Z,15.48
2024-03-16T08:13:59.586Z,16.02
2024-03-16T08:16:28.132Z,15.27
2024-03-16T08:18:56.546Z,16.13
2024-03-16T08:21:24.953Z,14.25
2024-03-16T08:23:53.110Z,14.20
2024-03-16T08:26:21.243Z,13.95
2024-03-16T08:28:49.407Z,13.38
2024-03-16T08:31:17.579Z,14.70
2024-03-16T08:33:45.766Z,12.98
2024-03-16T08:36:17.280Z,12.00
2024-03-16T08:38:45.557Z,13.57
2024-03-16T08:41:13.727Z,12.75
2024-03-16T08:43:42.183Z,13.00
2024-03-16T08:46:11.464Z,12.18
2024-03-16T08:48:40.963Z,11.68
2024-03-16T08:51:09.156Z,12.30
2024-03-16T08:53:37.414Z,12.80
2024-03-16T08:56:08.225Z,11.90
2024-03-16T08:58:36.686Z,12.13
2024-03-16T09:01:05.143Z,12.13
2024-03-16T09:03:33.346Z,14.18
2024-03-16T09:06:02.675Z,15.57
2024-03-16T09:08:32.491Z,13.80
2024-03-16T09:11:01.001Z,13.85
2024-03-16T09:13:30.868Z,14.57
2024-03-16T09:15:59.180Z,12.57
2024-03-16T09:18:28.791Z,16.48
2024-03-16T09:20:56.866Z,13.25
2024-03-16T09:23:25.267Z,14.02
2024-03-16T09:25:56.660Z,12.80
2024-03-16T09:28:24.902Z,18.98
2024-03-16T09:30:56.692Z,13.82
2024-03-16T09:33:25.558Z,11.43
2024-03-16T09:35:54.871Z,10.55
2024-03-16T09:38:24.485Z,10.05
2024-03-16T09:40:57.089Z,8.60
